sensor_id;sensor_type;location;lat;lon;timestamp;P1;durP1;ratioP1;P2;durP2;ratioP2
59105;SDS011;44891;50.204;8.132;2022-09-30T00:03:04;9.73;;;5.32;;
59105;SDS011;44891;50.204;8.132;2022-09-30T00:07:07;9.13;;;6.55;;
59105;SDS011;44891;50.204;8.132;2022-09-30T00:15:14;9.48;;;6.57;;
59105;SDS011;44891;50.204;8.132;2022-09-30T00:19:16;7.43;;;5.40;;
59105;SDS011;44891;50.204;8.132;2022-09-30T00:23:19;7.50;;;5.40;;
59105;SDS011;44891;50.204;8.132;2022-09-30T00:27:21;7.85;;;6.43;;
59105;SDS011;44891;50.204;8.132;2022-09-30T00:31:25;12.20;;;7.55;;
59105;SDS011;44891;50.204;8.132;2022-09-30T00:35:29;8.77;;;6.03;;
59105;SDS011;44891;50.204;8.132;2022-09-30T00:39:31;11.60;;;6.45;;
59105;SDS011;44891;50.204;8.132;2022-09-30T00:43:39;8.90;;;5.97;;
59105;SDS011;44891;50.204;8.132;2022-09-30T00:47:45;9.07;;;6.93;;
59105;SDS011;44891;50.204;8.132;2022-09-30T00:51:53;12.13;;;6.78;;
59105;SDS011;44891;50.204;8.132;2022-09-30T00:55:59;10.25;;;6.45;;
59105;SDS011;44891;50.204;8.132;2022-09-30T01:00:06;8.65;;;6.28;;
59105;SDS011;44891;50.204;8.132;2022-09-30T01:04:10;6.40;;;5.45;;
59105;SDS011;44891;50.204;8.132;2022-09-30T01:08:15;8.10;;;5.68;;
59105;SDS011;44891;50.204;8.132;2022-09-30T01:12:20;7.00;;;5.22;;
59105;SDS011;44891;50.204;8.132;2022-09-30T01:16:31;7.20;;;5.90;;
59105;SDS011;44891;50.204;8.132;2022-09-30T01:20:59;7.70;;;5.72;;
59105;SDS011;44891;50.204;8.132;2022-09-30T01:30:05;7.05;;;5.07;;
59105;SDS011;44891;50.204;8.132;2022-09-30T01:34:15;6.63;;;4.88;;
59105;SDS011;44891;50.204;8.132;2022-09-30T01:38:25;6.18;;;4.60;;
59105;SDS011;44891;50.204;8.132;2022-09-30T01:42:32;9.68;;;6.00;;
59105;SDS011;44891;50.204;8.132;2022-09-30T01:46:42;8.98;;;6.07;;
59105;SDS011;44891;50.204;8.132;2022-09-30T01:50:51;7.90;;;5.70;;
59105;SDS011;44891;50.204;8.132;2022-09-30T01:54:58;5.55;;;4.90;;
59105;SDS011;44891;50.204;8.132;2022-09-30T01:59:07;5.82;;;4.90;;
59105;SDS011;44891;50.204;8.132;2022-09-30T02:03:16;5.93;;;4.72;;
59105;SDS011;44891;50.204;8.132;2022-09-30T02:07:24;6.13;;;4.65;;
59105;SDS011;44891;50.204;8.132;2022-09-30T02:11:33;5.10;;;4.40;;
59105;SDS011;44891;50.204;8.132;2022-09-30T02:15:37;8.57;;;4.60;;
59105;SDS011;44891;50.204;8.132;2022-09-30T02:19:44;7.00;;;4.97;;
59105;SDS011;44891;50.204;8.132;2022-09-30T02:23:52;6.30;;;4.95;;
59105;SDS011;44891;50.204;8.132;2022-09-30T02:28:00;7.50;;;5.47;;
59105;SDS011;44891;50.204;8.132;2022-09-30T02:32:08;5.80;;;5.20;;
59105;SDS011;44891;50.204;8.132;2022-09-30T02:36:17;7.00;;;4.78;;
59105;SDS011;44891;50.204;8.132;2022-09-30T02:40:26;6.65;;;4.95;;
59105;SDS011;44891;50.204;8.132;2022-09-30T02:44:35;10.45;;;6.28;;
59105;SDS011;44891;50.204;8.132;2022-09-30T02:48:40;6.35;;;4.78;;
59105;SDS011;44891;50.204;8.132;2022-09-30T02:52:51;7.13;;;5.00;;
59105;SDS011;44891;50.204;8.132;2022-09-30T02:57:06;6.60;;;5.00;;
59105;SDS011;44891;50.204;8.132;2022-09-30T03:01:19;5.20;;;4.40;;
59105;SDS011;44891;50.204;8.132;2022-09-30T03:05:22;8.40;;;5.15;;
59105;SDS011;44891;50.204;8.132;2022-09-30T03:13:36;11.23;;;7.05;;
59105;SDS011;44891;50.204;8.132;2022-09-30T03:18:02;10.52;;;6.97;;
59105;SDS011;44891;50.204;8.132;2022-09-30T03:22:25;8.68;;;5.57;;
59105;SDS011;44891;50.204;8.132;2022-09-30T03:26:39;7.20;;;4.93;;
59105;SDS011;44891;50.204;8.132;2022-09-30T03:30:53;10.88;;;6.50;;
59105;SDS011;44891;50.204;8.132;2022-09-30T03:35:05;10.05;;;7.93;;
59105;SDS011;44891;50.204;8.132;2022-09-30T03:39:15;16.92;;;12.57;;
59105;SDS011;44891;50.204;8.132;2022-09-30T03:43:26;10.80;;;7.90;;
59105;SDS011;44891;50.204;8.132;2022-09-30T03:47:34;8.65;;;6.10;;
59105;SDS011;44891;50.204;8.132;2022-09-30T03:51:42;8.90;;;7.03;;
59105;SDS011;44891;50.204;8.132;2022-09-30T03:59:48;13.70;;;7.43;;
59105;SDS011;44891;50.204;8.132;2022-09-30T04:03:52;9.82;;;7.03;;
59105;SDS011;44891;50.204;8.132;2022-09-30T04:07:54;15.88;;;9.45;;
59105;SDS011;44891;50.204;8.132;2022-09-30T04:15:58;9.15;;;7.15;;
59105;SDS011;44891;50.204;8.132;2022-09-30T04:20:02;7.57;;;6.53;;
59105;SDS011;44891;50.204;8.132;2022-09-30T04:24:05;8.90;;;6.03;;
59105;SDS011;44891;50.204;8.132;2022-09-30T04:28:07;7.93;;;5.72;;
59105;SDS011;44891;50.204;8.132;2022-09-30T04:32:10;6.72;;;5.68;;
59105;SDS011;44891;50.204;8.132;2022-09-30T04:36:13;8.48;;;5.95;;
59105;SDS011;44891;50.204;8.132;2022-09-30T04:40:15;7.80;;;5.88;;
59105;SDS011;44891;50.204;8.132;2022-09-30T04:44:17;8.27;;;5.35;;
59105;SDS011;44891;50.204;8.132;2022-09-30T04:48:19;6.38;;;5.55;;
59105;SDS011;44891;50.204;8.132;2022-09-30T04:52:24;8.70;;;7.32;;
59105;SDS011;44891;50.204;8.132;2022-09-30T04:56:26;13.25;;;9.60;;
59105;SDS011;44891;50.204;8.132;2022-09-30T05:00:28;13.50;;;9.68;;
59105;SDS011;44891;50.204;8.132;2022-09-30T05:04:30;13.40;;;8.40;;
59105;SDS011;44891;50.204;8.132;2022-09-30T05:08:34;10.43;;;7.18;;
59105;SDS011;44891;50.204;8.132;2022-09-30T05:12:37;11.50;;;7.53;;
59105;SDS011;44891;50.204;8.132;2022-09-30T05:16:40;11.32;;;6.78;;
59105;SDS011;44891;50.204;8.132;2022-09-30T05:20:42;7.57;;;6.10;;
59105;SDS011;44891;50.204;8.132;2022-09-30T05:24:46;9.20;;;6.47;;
59105;SDS011;44891;50.204;8.132;2022-09-30T05:28:48;12.98;;;7.40;;
59105;SDS011;44891;50.204;8.132;2022-09-30T05:32:50;12.13;;;7.68;;
59105;SDS011;44891;50.204;8.132;2022-09-30T05:36:52;13.52;;;8.05;;
59105;SDS011;44891;50.204;8.132;2022-09-30T05:40:56;9.35;;;6.55;;
59105;SDS011;44891;50.204;8.132;2022-09-30T05:44:58;16.33;;;11.35;;
59105;SDS011;44891;50.204;8.132;2022-09-30T05:49:00;11.00;;;7.88;;
59105;SDS011;44891;50.204;8.132;2022-09-30T05:53:02;11.73;;;6.47;;
59105;SDS011;44891;50.204;8.132;2022-09-30T05:57:06;25.63;;;14.68;;
59105;SDS011;44891;50.204;8.132;2022-09-30T06:01:08;11.35;;;7.65;;
59105;SDS011;44891;50.204;8.132;2022-09-30T06:05:11;10.63;;;7.80;;
59105;SDS011;44891;50.204;8.132;2022-09-30T06:09:14;12.38;;;7.50;;
59105;SDS011;44891;50.204;8.132;2022-09-30T06:13:17;13.93;;;10.15;;
59105;SDS011;44891;50.204;8.132;2022-09-30T06:17:20;17.08;;;6.97;;
59105;SDS011;44891;50.204;8.132;2022-09-30T06:25:24;17.90;;;11.30;;
59105;SDS011;44891;50.204;8.132;2022-09-30T06:29:29;11.65;;;7.32;;
59105;SDS011;44891;50.204;8.132;2022-09-30T06:33:31;14.00;;;8.05;;
59105;SDS011;44891;50.204;8.132;2022-09-30T06:37:33;8.40;;;6.93;;
59105;SDS011;44891;50.204;8.132;2022-09-30T06:41:37;8.32;;;6.97;;
59105;SDS011;44891;50.204;8.132;2022-09-30T06:45:45;11.27;;;9.15;;
59105;SDS011;44891;50.204;8.132;2022-09-30T06:49:48;15.45;;;11.20;;
59105;SDS011;44891;50.204;8.132;2022-09-30T06:53:52;13.80;;;9.75;;
59105;SDS011;44891;50.204;8.132;2022-09-30T06:57:55;23.08;;;15.30;;
59105;SDS011;44891;50.204;8.132;2022-09-30T07:06:02;21.20;;;13.30;;
59105;SDS011;44891;50.204;8.132;2022-09-30T07:10:07;21.52;;;13.13;;
59105;SDS011;44891;50.204;8.132;2022-09-30T07:14:09;15.68;;;9.63;;
59105;SDS011;44891;50.204;8.132;2022-09-30T07:18:14;13.15;;;8.48;;
59105;SDS011;44891;50.204;8.132;2022-09-30T07:22:20;12.50;;;8.15;;
59105;SDS011;44891;50.204;8.132;2022-09-30T07:26:29;10.45;;;7.38;;
59105;SDS011;44891;50.204;8.132;2022-09-30T07:30:31;31.85;;;19.15;;
59105;SDS011;44891;50.204;8.132;2022-09-30T07:34:35;28.83;;;16.17;;
59105;SDS011;44891;50.204;8.132;2022-09-30T07:38:38;20.35;;;13.07;;
59105;SDS011;44891;50.204;8.132;2022-09-30T07:42:41;21.52;;;14.18;;
59105;SDS011;44891;50.204;8.132;2022-09-30T07:46:45;18.23;;;12.30;;
59105;SDS011;44891;50.204;8.132;2022-09-30T07:50:49;18.40;;;11.65;;
59105;SDS011;44891;50.204;8.132;2022-09-30T07:54:54;22.15;;;13.77;;
59105;SDS011;44891;50.204;8.132;2022-09-30T07:58:57;19.65;;;11.82;;
59105;SDS011;44891;50.204;8.132;2022-09-30T08:03:01;14.63;;;10.07;;
59105;SDS011;44891;50.204;8.132;2022-09-30T08:11:06;18.30;;;11.57;;
59105;SDS011;44891;50.204;8.132;2022-09-30T08:19:12;18.20;;;11.35;;
59105;SDS011;44891;50.204;8.132;2022-09-30T08:23:17;10.75;;;7.70;;
59105;SDS011;44891;50.204;8.132;2022-09-30T08:27:19;9.98;;;6.82;;
59105;SDS011;44891;50.204;8.132;2022-09-30T08:35:24;12.77;;;9.07;;
59105;SDS011;44891;50.204;8.132;2022-09-30T08:43:30;9.95;;;6.90;;
59105;SDS011;44891;50.204;8.132;2022-09-30T08:47:42;11.38;;;7.70;;
59105;SDS011;44891;50.204;8.132;2022-09-30T08:51:52;13.23;;;8.45;;
59105;SDS011;44891;50.204;8.132;2022-09-30T08:55:56;12.30;;;8.27;;
59105;SDS011;44891;50.204;8.132;2022-09-30T09:00:02;14.07;;;7.93;;
59105;SDS011;44891;50.204;8.132;2022-09-30T09:04:09;14.02;;;7.90;;
59105;SDS011;44891;50.204;8.132;2022-09-30T09:08:15;9.40;;;6.40;;
59105;SDS011;44891;50.204;8.132;2022-09-30T09:12:30;10.95;;;7.10;;
59105;SDS011;44891;50.204;8.132;2022-09-30T09:16:44;11.63;;;6.30;;
59105;SDS011;44891;50.204;8.132;2022-09-30T09:20:55;7.88;;;6.35;;
59105;SDS011;44891;50.204;8.132;2022-09-30T09:24:59;13.27;;;8.40;;
59105;SDS011;44891;50.204;8.132;2022-09-30T09:29:07;10.57;;;6.95;;
59105;SDS011;44891;50.204;8.132;2022-09-30T09:33:21;28.38;;;13.77;;
59105;SDS011;44891;50.204;8.132;2022-09-30T09:37:32;20.67;;;10.55;;
59105;SDS011;44891;50.204;8.132;2022-09-30T09:41:57;11.38;;;5.85;;
59105;SDS011;44891;50.204;8.132;2022-09-30T09:46:10;12.13;;;6.70;;
59105;SDS011;44891;50.204;8.132;2022-09-30T09:50:18;14.50;;;8.35;;
59105;SDS011;44891;50.204;8.132;2022-09-30T09:54:25;14.10;;;8.85;;
59105;SDS011;44891;50.204;8.132;2022-09-30T09:58:30;8.13;;;5.18;;
59105;SDS011;44891;50.204;8.132;2022-09-30T10:02:35;8.27;;;5.18;;
59105;SDS011;44891;50.204;8.132;2022-09-30T10:06:43;6.82;;;4.85;;
59105;SDS011;44891;50.204;8.132;2022-09-30T10:10:48;8.45;;;5.43;;
59105;SDS011;44891;50.204;8.132;2022-09-30T10:14:54;7.25;;;4.18;;
59105;SDS011;44891;50.204;8.132;2022-09-30T10:19:00;6.45;;;3.90;;
59105;SDS011;44891;50.204;8.132;2022-09-30T10:23:07;5.07;;;3.63;;
59105;SDS011;44891;50.204;8.132;2022-09-30T10:27:25;4.00;;;2.95;;
59105;SDS011;44891;50.204;8.132;2022-09-30T10:31:29;4.70;;;3.63;;
59105;SDS011;44891;50.204;8.132;2022-09-30T10:35:35;5.90;;;3.83;;
59105;SDS011;44891;50.204;8.132;2022-09-30T10:39:52;7.95;;;4.50;;
59105;SDS011;44891;50.204;8.132;2022-09-30T10:44:01;6.65;;;4.32;;
59105;SDS011;44891;50.204;8.132;2022-09-30T10:48:06;5.28;;;4.57;;
59105;SDS011;44891;50.204;8.132;2022-09-30T10:56:33;5.32;;;4.07;;
59105;SDS011;44891;50.204;8.132;2022-09-30T11:00:40;5.15;;;3.53;;
59105;SDS011;44891;50.204;8.132;2022-09-30T11:04:43;8.65;;;4.32;;
59105;SDS011;44891;50.204;8.132;2022-09-30T11:08:54;7.15;;;4.30;;
59105;SDS011;44891;50.204;8.132;2022-09-30T11:13:03;8.05;;;4.57;;
59105;SDS011;44891;50.204;8.132;2022-09-30T11:17:15;5.82;;;4.28;;
59105;SDS011;44891;50.204;8.132;2022-09-30T11:21:27;5.70;;;3.50;;
59105;SDS011;44891;50.204;8.132;2022-09-30T11:25:38;3.65;;;2.90;;
59105;SDS011;44891;50.204;8.132;2022-09-30T11:29:50;3.45;;;2.65;;
59105;SDS011;44891;50.204;8.132;2022-09-30T11:34:19;3.80;;;2.80;;
59105;SDS011;44891;50.204;8.132;2022-09-30T11:38:33;3.65;;;2.80;;
59105;SDS011;44891;50.204;8.132;2022-09-30T11:42:51;7.38;;;3.10;;
59105;SDS011;44891;50.204;8.132;2022-09-30T11:47:01;4.03;;;2.60;;
59105;SDS011;44891;50.204;8.132;2022-09-30T11:51:24;4.53;;;3.08;;
59105;SDS011;44891;50.204;8.132;2022-09-30T11:55:39;3.72;;;3.00;;
59105;SDS011;44891;50.204;8.132;2022-09-30T11:59:53;3.72;;;3.00;;
59105;SDS011;44891;50.204;8.132;2022-09-30T12:04:00;3.60;;;2.72;;
59105;SDS011;44891;50.204;8.132;2022-09-30T12:08:09;4.30;;;2.13;;
59105;SDS011;44891;50.204;8.132;2022-09-30T12:12:15;3.25;;;2.58;;
59105;SDS011;44891;50.204;8.132;2022-09-30T12:16:22;3.05;;;2.72;;
59105;SDS011;44891;50.204;8.132;2022-09-30T12:20:26;3.70;;;3.08;;
59105;SDS011;44891;50.204;8.132;2022-09-30T12:24:34;3.55;;;2.70;;
59105;SDS011;44891;50.204;8.132;2022-09-30T12:28:39;3.53;;;2.60;;
59105;SDS011;44891;50.204;8.132;2022-09-30T12:33:09;3.47;;;2.20;;
59105;SDS011;44891;50.204;8.132;2022-09-30T12:41:54;2.65;;;2.20;;
59105;SDS011;44891;50.204;8.132;2022-09-30T12:46:09;3.60;;;2.70;;
59105;SDS011;44891;50.204;8.132;2022-09-30T12:50:18;4.25;;;2.60;;
59105;SDS011;44891;50.204;8.132;2022-09-30T12:54:23;3.05;;;2.13;;
59105;SDS011;44891;50.204;8.132;2022-09-30T12:58:30;1.85;;;1.75;;
59105;SDS011;44891;50.204;8.132;2022-09-30T13:02:36;3.38;;;2.33;;
59105;SDS011;44891;50.204;8.132;2022-09-30T13:11:33;2.55;;;2.10;;
59105;SDS011;44891;50.204;8.132;2022-09-30T13:15:40;3.17;;;2.55;;
59105;SDS011;44891;50.204;8.132;2022-09-30T13:19:43;3.40;;;2.20;;
59105;SDS011;44891;50.204;8.132;2022-09-30T13:23:48;3.80;;;2.38;;
59105;SDS011;44891;50.204;8.132;2022-09-30T13:27:53;4.00;;;2.28;;
59105;SDS011;44891;50.204;8.132;2022-09-30T13:32:31;4.30;;;2.55;;
59105;SDS011;44891;50.204;8.132;2022-09-30T13:36:40;3.08;;;2.70;;
59105;SDS011;44891;50.204;8.132;2022-09-30T13:41:00;5.05;;;2.90;;
59105;SDS011;44891;50.204;8.132;2022-09-30T13:45:10;6.18;;;3.30;;
59105;SDS011;44891;50.204;8.132;2022-09-30T13:49:18;4.45;;;2.65;;
59105;SDS011;44891;50.204;8.132;2022-09-30T13:53:26;3.10;;;2.65;;
59105;SDS011;44891;50.204;8.132;2022-09-30T13:57:33;3.90;;;2.78;;
59105;SDS011;44891;50.204;8.132;2022-09-30T14:02:06;4.65;;;2.55;;
59105;SDS011;44891;50.204;8.132;2022-09-30T14:06:25;3.97;;;2.80;;
59105;SDS011;44891;50.204;8.132;2022-09-30T14:10:46;4.70;;;2.70;;
59105;SDS011;44891;50.204;8.132;2022-09-30T14:15:22;2.90;;;2.60;;
59105;SDS011;44891;50.204;8.132;2022-09-30T14:19:46;3.67;;;2.65;;
59105;SDS011;44891;50.204;8.132;2022-09-30T14:24:10;4.00;;;2.67;;
59105;SDS011;44891;50.204;8.132;2022-09-30T14:28:16;6.20;;;3.75;;
59105;SDS011;44891;50.204;8.132;2022-09-30T14:32:26;9.38;;;5.25;;
59105;SDS011;44891;50.204;8.132;2022-09-30T14:36:31;2.85;;;2.63;;
59105;SDS011;44891;50.204;8.132;2022-09-30T14:40:34;5.93;;;2.70;;
59105;SDS011;44891;50.204;8.132;2022-09-30T14:44:39;3.90;;;2.92;;
59105;SDS011;44891;50.204;8.132;2022-09-30T14:48:42;4.43;;;2.40;;
59105;SDS011;44891;50.204;8.132;2022-09-30T14:52:49;3.90;;;2.33;;
59105;SDS011;44891;50.204;8.132;2022-09-30T14:56:55;3.03;;;2.40;;
59105;SDS011;44891;50.204;8.132;2022-09-30T15:01:01;4.97;;;2.70;;
59105;SDS011;44891;50.204;8.132;2022-09-30T15:05:10;3.00;;;1.98;;
59105;SDS011;44891;50.204;8.132;2022-09-30T15:09:16;4.05;;;2.40;;
59105;SDS011;44891;50.204;8.132;2022-09-30T15:13:24;3.03;;;2.10;;
59105;SDS011;44891;50.204;8.132;2022-09-30T15:17:29;3.17;;;2.15;;
59105;SDS011;44891;50.204;8.132;2022-09-30T15:21:36;3.83;;;2.08;;
59105;SDS011;44891;50.204;8.132;2022-09-30T15:25:40;3.50;;;2.00;;
59105;SDS011;44891;50.204;8.132;2022-09-30T15:29:52;2.08;;;1.77;;
59105;SDS011;44891;50.204;8.132;2022-09-30T15:33:59;2.47;;;1.80;;
59105;SDS011;44891;50.204;8.132;2022-09-30T15:38:07;2.75;;;1.92;;
59105;SDS011;44891;50.204;8.132;2022-09-30T15:42:26;2.20;;;1.85;;
59105;SDS011;44891;50.204;8.132;2022-09-30T15:46:31;1.98;;;1.88;;
59105;SDS011;44891;50.204;8.132;2022-09-30T15:50:35;3.22;;;2.10;;
59105;SDS011;44891;50.204;8.132;2022-09-30T15:54:38;4.28;;;2.05;;
59105;SDS011;44891;50.204;8.132;2022-09-30T15:58:42;3.20;;;2.00;;
59105;SDS011;44891;50.204;8.132;2022-09-30T16:02:55;3.17;;;1.90;;
59105;SDS011;44891;50.204;8.132;2022-09-30T16:07:08;4.38;;;2.40;;
59105;SDS011;44891;50.204;8.132;2022-09-30T16:11:18;2.30;;;2.03;;
59105;SDS011;44891;50.204;8.132;2022-09-30T16:15:27;10.23;;;5.60;;
59105;SDS011;44891;50.204;8.132;2022-09-30T16:19:30;61.53;;;24.35;;
59105;SDS011;44891;50.204;8.132;2022-09-30T16:23:34;19.65;;;10.48;;
59105;SDS011;44891;50.204;8.132;2022-09-30T16:27:37;10.20;;;6.30;;
59105;SDS011;44891;50.204;8.132;2022-09-30T16:31:40;8.05;;;2.92;;
59105;SDS011;44891;50.204;8.132;2022-09-30T16:35:43;13.90;;;8.13;;
59105;SDS011;44891;50.204;8.132;2022-09-30T16:39:48;7.22;;;5.35;;
59105;SDS011;44891;50.204;8.132;2022-09-30T16:43:50;3.58;;;3.28;;
59105;SDS011;44891;50.204;8.132;2022-09-30T16:47:54;3.13;;;2.10;;
59105;SDS011;44891;50.204;8.132;2022-09-30T16:51:58;3.50;;;2.47;;
59105;SDS011;44891;50.204;8.132;2022-09-30T16:56:00;7.43;;;4.03;;
59105;SDS011;44891;50.204;8.132;2022-09-30T17:00:02;5.88;;;4.28;;
59105;SDS011;44891;50.204;8.132;2022-09-30T17:04:06;5.03;;;3.95;;
59105;SDS011;44891;50.204;8.132;2022-09-30T17:08:09;7.65;;;4.90;;
59105;SDS011;44891;50.204;8.132;2022-09-30T17:12:13;11.70;;;7.78;;
59105;SDS011;44891;50.204;8.132;2022-09-30T17:16:15;5.45;;;3.75;;
59105;SDS011;44891;50.204;8.132;2022-09-30T17:20:19;10.18;;;5.03;;
59105;SDS011;44891;50.204;8.132;2022-09-30T17:24:22;5.88;;;3.38;;
59105;SDS011;44891;50.204;8.132;2022-09-30T17:28:24;5.40;;;3.80;;
59105;SDS011;44891;50.204;8.132;2022-09-30T17:32:26;6.90;;;5.03;;
59105;SDS011;44891;50.204;8.132;2022-09-30T17:36:29;8.32;;;5.05;;
59105;SDS011;44891;50.204;8.132;2022-09-30T17:40:31;8.90;;;5.05;;
59105;SDS011;44891;50.204;8.132;2022-09-30T17:44:51;7.40;;;5.78;;
59105;SDS011;44891;50.204;8.132;2022-09-30T17:48:54;7.57;;;5.13;;
59105;SDS011;44891;50.204;8.132;2022-09-30T17:52:58;10.00;;;7.35;;
59105;SDS011;44891;50.204;8.132;2022-09-30T17:57:02;8.75;;;5.93;;
59105;SDS011;44891;50.204;8.132;2022-09-30T18:01:04;7.53;;;6.00;;
59105;SDS011;44891;50.204;8.132;2022-09-30T18:05:07;12.70;;;7.38;;
59105;SDS011;44891;50.204;8.132;2022-09-30T18:09:11;10.55;;;6.25;;
59105;SDS011;44891;50.204;8.132;2022-09-30T18:13:13;9.18;;;5.90;;
59105;SDS011;44891;50.204;8.132;2022-09-30T18:17:15;10.48;;;6.70;;
59105;SDS011;44891;50.204;8.132;2022-09-30T18:21:17;16.80;;;10.45;;
59105;SDS011;44891;50.204;8.132;2022-09-30T18:25:20;21.40;;;13.02;;
59105;SDS011;44891;50.204;8.132;2022-09-30T18:29:23;18.70;;;11.55;;
59105;SDS011;44891;50.204;8.132;2022-09-30T18:33:25;11.07;;;8.00;;
59105;SDS011;44891;50.204;8.132;2022-09-30T18:37:27;9.38;;;6.05;;
59105;SDS011;44891;50.204;8.132;2022-09-30T18:41:34;9.00;;;6.40;;
59105;SDS011;44891;50.204;8.132;2022-09-30T18:45:37;9.00;;;7.20;;
59105;SDS011;44891;50.204;8.132;2022-09-30T18:49:40;13.52;;;8.00;;
59105;SDS011;44891;50.204;8.132;2022-09-30T18:53:42;10.20;;;6.97;;
59105;SDS011;44891;50.204;8.132;2022-09-30T18:57:45;6.70;;;4.95;;
59105;SDS011;44891;50.204;8.132;2022-09-30T19:01:49;5.93;;;4.63;;
59105;SDS011;44891;50.204;8.132;2022-09-30T19:05:52;5.82;;;4.80;;
59105;SDS011;44891;50.204;8.132;2022-09-30T19:09:54;9.98;;;8.27;;
59105;SDS011;44891;50.204;8.132;2022-09-30T19:13:57;8.80;;;6.40;;
59105;SDS011;44891;50.204;8.132;2022-09-30T19:18:02;9.48;;;6.57;;
59105;SDS011;44891;50.204;8.132;2022-09-30T19:22:05;10.57;;;5.68;;
59105;SDS011;44891;50.204;8.132;2022-09-30T19:26:07;8.55;;;5.40;;
59105;SDS011;44891;50.204;8.132;2022-09-30T19:30:12;5.80;;;4.72;;
59105;SDS011;44891;50.204;8.132;2022-09-30T19:34:15;7.50;;;5.75;;
59105;SDS011;44891;50.204;8.132;2022-09-30T19:38:18;7.57;;;5.00;;
59105;SDS011;44891;50.204;8.132;2022-09-30T19:46:23;9.18;;;5.75;;
59105;SDS011;44891;50.204;8.132;2022-09-30T19:50:25;9.38;;;6.07;;
59105;SDS011;44891;50.204;8.132;2022-09-30T19:58:30;18.48;;;11.85;;
59105;SDS011;44891;50.204;8.132;2022-09-30T20:02:34;17.92;;;10.98;;
59105;SDS011;44891;50.204;8.132;2022-09-30T20:06:36;21.15;;;12.20;;
59105;SDS011;44891;50.204;8.132;2022-09-30T20:14:40;19.50;;;11.88;;
59105;SDS011;44891;50.204;8.132;2022-09-30T20:19:01;17.42;;;11.90;;
59105;SDS011;44891;50.204;8.132;2022-09-30T20:23:03;13.05;;;9.10;;
59105;SDS011;44891;50.204;8.132;2022-09-30T20:31:08;10.70;;;8.02;;
59105;SDS011;44891;50.204;8.132;2022-09-30T20:35:14;8.30;;;6.57;;
59105;SDS011;44891;50.204;8.132;2022-09-30T20:39:16;9.25;;;6.50;;
59105;SDS011;44891;50.204;8.132;2022-09-30T20:47:20;5.13;;;4.32;;
59105;SDS011;44891;50.204;8.132;2022-09-30T20:51:24;10.95;;;6.93;;
59105;SDS011;44891;50.204;8.132;2022-09-30T20:55:27;14.20;;;10.18;;
59105;SDS011;44891;50.204;8.132;2022-09-30T21:03:32;7.43;;;6.32;;
59105;SDS011;44891;50.204;8.132;2022-09-30T21:07:37;7.75;;;6.30;;
59105;SDS011;44891;50.204;8.132;2022-09-30T21:11:39;8.70;;;5.88;;
59105;SDS011;44891;50.204;8.132;2022-09-30T21:15:42;6.30;;;4.72;;
59105;SDS011;44891;50.204;8.132;2022-09-30T21:23:47;8.80;;;5.40;;
59105;SDS011;44891;50.204;8.132;2022-09-30T21:27:49;6.50;;;5.00;;
59105;SDS011;44891;50.204;8.132;2022-09-30T21:35:57;6.25;;;4.88;;
59105;SDS011;44891;50.204;8.132;2022-09-30T21:40:02;5.55;;;4.22;;
59105;SDS011;44891;50.204;8.132;2022-09-30T21:44:04;5.47;;;3.92;;
59105;SDS011;44891;50.204;8.132;2022-09-30T21:48:06;4.07;;;3.67;;
59105;SDS011;44891;50.204;8.132;2022-09-30T21:52:10;5.45;;;4.38;;
59105;SDS011;44891;50.204;8.132;2022-09-30T22:00:15;4.70;;;3.28;;
59105;SDS011;44891;50.204;8.132;2022-09-30T22:04:17;5.00;;;4.03;;
59105;SDS011;44891;50.204;8.132;2022-09-30T22:08:20;6.35;;;4.85;;
59105;SDS011;44891;50.204;8.132;2022-09-30T22:12:24;8.27;;;5.35;;
59105;SDS011;44891;50.204;8.132;2022-09-30T22:16:27;7.28;;;5.22;;
59105;SDS011;44891;50.204;8.132;2022-09-30T22:20:30;8.98;;;4.75;;
59105;SDS011;44891;50.204;8.132;2022-09-30T22:24:33;6.10;;;4.90;;
59105;SDS011;44891;50.204;8.132;2022-09-30T22:28:37;6.72;;;4.60;;
59105;SDS011;44891;50.204;8.132;2022-09-30T22:32:40;5.10;;;4.00;;
59105;SDS011;44891;50.204;8.132;2022-09-30T22:36:42;4.72;;;3.70;;
59105;SDS011;44891;50.204;8.132;2022-09-30T22:41:01;5.05;;;3.80;;
59105;SDS011;44891;50.204;8.132;2022-09-30T22:45:05;5.07;;;3.75;;
59105;SDS011;44891;50.204;8.132;2022-09-30T22:49:08;4.88;;;3.63;;
59105;SDS011;44891;50.204;8.132;2022-09-30T22:53:11;5.68;;;3.60;;
59105;SDS011;44891;50.204;8.132;2022-09-30T23:01:17;6.03;;;3.55;;
59105;SDS011;44891;50.204;8.132;2022-09-30T23:05:19;4.25;;;3.35;;
59105;SDS011;44891;50.204;8.132;2022-09-30T23:09:22;4.97;;;3.40;;
59105;SDS011;44891;50.204;8.132;2022-09-30T23:13:27;4.47;;;3.13;;
59105;SDS011;44891;50.204;8.132;2022-09-30T23:17:31;5.40;;;3.40;;
59105;SDS011;44891;50.204;8.132;2022-09-30T23:21:35;5.28;;;3.42;;
59105;SDS011;44891;50.204;8.132;2022-09-30T23:25:37;4.47;;;3.33;;
59105;SDS011;44891;50.204;8.132;2022-09-30T23:33:44;3.83;;;3.00;;
59105;SDS011;44891;50.204;8.132;2022-09-30T23:37:48;4.72;;;3.13;;
59105;SDS011;44891;50.204;8.132;2022-09-30T23:41:51;5.07;;;3.25;;
59105;SDS011;44891;50.204;8.132;2022-09-30T23:45:53;5.38;;;3.35;;
59105;SDS011;44891;50.204;8.132;2022-09-30T23:53:59;5.53;;;3.50;;
59105;SDS011;44891;50.204;8.132;2022-09-30T23:58:01;4.82;;;3.53;;
